createdAt,value
2019-04-23T00:00:21.806Z,52.49
2019-04-23T00:01:33.799Z,51.37
2019-04-23T00:02:26.563Z,52.70
2019-04-23T00:03:21.819Z,52.08
2019-04-23T00:04:20.482Z,52.29
2019-04-23T00:05:35.307Z,53.00
2019-04-23T00:07:39.623Z,52.29
2019-04-23T00:08:36.286Z,53.21
2019-04-23T00:10:26.011Z,53.33
2019-04-23T00:12:30.007Z,53.54
2019-04-23T00:13:24.232Z,53.23
2019-04-23T00:14:27.271Z,53.54
2019-04-23T00:15:17.422Z,53.64
2019-04-23T00:17:35.272Z,53.44
2019-04-23T00:18:34.831Z,53.46
2019-04-23T00:19:27.635Z,53.87
2019-04-23T00:20:20.162Z,54.28
2019-04-23T00:21:28.307Z,53.87
2019-04-23T00:22:19.974Z,54.08
2019-04-23T00:23:26.787Z,53.67
2019-04-23T00:24:38.407Z,53.97
2019-04-23T00:27:29.132Z,53.97
2019-04-23T00:29:32.759Z,53.67
2019-04-23T00:30:27.569Z,54.18
2019-04-23T00:31:23.986Z,53.87
2019-04-23T00:33:25.319Z,54.08
2019-04-23T00:34:26.835Z,53.87
2019-04-23T00:35:21.734Z,53.67
2019-04-23T00:36:27.522Z,53.87
2019-04-23T00:39:29.466Z,53.97
2019-04-23T00:40:28.817Z,53.97
2019-04-23T00:41:24.810Z,53.97
2019-04-23T00:43:24.301Z,54.28
2019-04-23T00:44:26.985Z,53.87
2019-04-23T00:45:27.235Z,54.79
2019-04-23T00:46:25.200Z,55.02
2019-04-23T00:47:25.517Z,54.90
2019-04-23T00:48:31.086Z,54.28
2019-04-23T00:49:29.077Z,54.38
2019-04-23T00:51:22.781Z,54.28
2019-04-23T00:53:22.073Z,54.41
2019-04-23T00:54:39.275Z,54.28
2019-04-23T00:55:26.187Z,54.69
2019-04-23T00:57:26.689Z,55.21
2019-04-23T00:58:27.849Z,54.61
2019-04-23T00:59:38.718Z,54.92
2019-04-23T01:00:26.112Z,54.72
2019-04-23T01:01:31.862Z,54.61
2019-04-23T01:02:22.980Z,54.69
2019-04-23T01:03:36.099Z,55.23
2019-04-23T01:04:25.520Z,54.92
2019-04-23T01:05:25.831Z,54.41
2019-04-23T01:07:33.573Z,54.49
2019-04-23T01:09:24.091Z,54.72
2019-04-23T01:10:21.970Z,54.28
2019-04-23T01:11:20.619Z,54.08
2019-04-23T01:12:38.402Z,54.08
2019-04-23T01:13:31.829Z,54.38
2019-04-23T01:14:20.234Z,55.00
2019-04-23T01:15:25.450Z,54.79
2019-04-23T01:16:32.980Z,54.90
2019-04-23T01:17:35.094Z,54.90
2019-04-23T01:18:34.069Z,54.38
2019-04-23T01:19:24.840Z,54.82
2019-04-23T01:20:24.610Z,54.38
2019-04-23T01:21:01.076Z,54.61
2019-04-23T01:22:00.124Z,54.79
2019-04-23T01:23:01.140Z,54.69
2019-04-23T01:24:04.376Z,54.59
2019-04-23T01:25:09.791Z,55.13
2019-04-23T01:26:20.920Z,55.02
2019-04-23T01:27:49.609Z,55.10
2019-04-23T01:28:35.663Z,55.13
2019-04-23T01:29:30.515Z,55.13
2019-04-23T01:30:41.099Z,55.43
2019-04-23T01:31:27.203Z,55.13
2019-04-23T01:32:28.023Z,54.72
2019-04-23T01:33:34.055Z,55.23
2019-04-23T01:34:31.964Z,55.02
2019-04-23T01:35:26.966Z,55.02
2019-04-23T01:36:25.329Z,56.05
2019-04-23T01:37:33.499Z,55.23
2019-04-23T01:38:27.947Z,55.94
2019-04-23T01:39:22.879Z,55.85
2019-04-23T01:41:30.314Z,55.13
2019-04-23T01:43:23.196Z,55.13
2019-04-23T01:44:32.765Z,55.02
2019-04-23T01:45:24.211Z,55.02
2019-04-23T01:46:40.015Z,55.13
2019-04-23T01:47:24.163Z,55.21
2019-04-23T01:48:30.118Z,55.64
2019-04-23T01:49:30.549Z,55.33
2019-04-23T01:50:31.246Z,55.74
2019-04-23T01:51:31.112Z,55.21
2019-04-23T01:52:36.299Z,55.41
2019-04-23T01:53:27.337Z,56.02
2019-04-23T01:54:25.576Z,55.30
2019-04-23T01:55:27.340Z,56.02
2019-04-23T01:56:24.223Z,56.13
2019-04-23T01:57:32.507Z,55.10
2019-04-23T01:59:26.276Z,55.21
2019-04-23T02:00:30.616Z,54.90
2019-04-23T02:01:46.310Z,54.69
2019-04-23T02:02:29.764Z,55.92
2019-04-23T02:03:29.429Z,55.62
2019-04-23T02:04:28.634Z,55.41
2019-04-23T02:05:32.183Z,55.41
2019-04-23T02:06:25.162Z,55.64
2019-04-23T02:07:33.031Z,55.13
2019-04-23T02:08:28.328Z,55.62
2019-04-23T02:09:26.017Z,55.41
2019-04-23T02:10:39.547Z,55.85
2019-04-23T02:11:25.554Z,55.72
2019-04-23T02:12:27.174Z,55.85
2019-04-23T02:13:32.355Z,56.15
2019-04-23T02:14:28.108Z,56.35
2019-04-23T02:15:29.949Z,57.07
2019-04-23T02:16:32.672Z,57.05
2019-04-23T02:17:36.266Z,57.28
2019-04-23T02:18:25.350Z,56.56
2019-04-23T02:19:30.518Z,57.07
2019-04-23T02:20:28.175Z,57.79
2019-04-23T02:21:26.137Z,57.59
2019-04-23T02:22:31.411Z,56.97
2019-04-23T02:23:28.106Z,56.64
2019-04-23T02:24:24.395Z,57.05
2019-04-23T02:25:39.681Z,57.48
2019-04-23T02:26:32.714Z,57.69
2019-04-23T02:27:42.082Z,57.59
2019-04-23T02:28:25.515Z,57.59
2019-04-23T02:29:39.525Z,57.28
2019-04-23T02:30:59.894Z,57.59
2019-04-23T02:32:42.238Z,57.69
2019-04-23T02:33:35.883Z,57.82
2019-04-23T02:34:40.635Z,57.89
2019-04-23T02:37:49.257Z,57.41
2019-04-23T02:38:44.278Z,57.61
2019-04-23T02:39:40.173Z,57.89
2019-04-23T02:43:26.526Z,57.59
2019-04-23T02:44:28.240Z,57.89
2019-04-23T02:45:39.221Z,57.48
2019-04-23T02:46:28.239Z,57.35
2019-04-23T02:47:34.299Z,57.89
2019-04-23T02:52:31.056Z,57.89
2019-04-23T02:54:00.134Z,57.92
2019-04-23T02:56:37.651Z,58.92
2019-04-23T02:57:35.288Z,58.95
2019-04-23T02:58:34.869Z,59.77
2019-04-23T02:59:51.410Z,58.95
2019-04-23T03:01:31.942Z,59.12
2019-04-23T03:02:55.882Z,59.15
2019-04-23T03:03:47.374Z,59.97
2019-04-23T03:04:37.222Z,59.56
2019-04-23T03:05:36.409Z,59.97
2019-04-23T03:07:40.919Z,59.56
2019-04-23T03:08:32.715Z,59.87
2019-04-23T03:09:44.750Z,59.36
2019-04-23T03:10:33.091Z,59.15
2019-04-23T03:11:32.091Z,59.46
2019-04-23T03:12:48.618Z,59.87
2019-04-23T03:13:39.247Z,59.56
2019-04-23T03:14:35.709Z,59.77
2019-04-23T03:15:40.020Z,59.36
2019-04-23T03:16:45.368Z,60.28
2019-04-23T03:17:30.980Z,59.97
2019-04-23T03:20:38.364Z,60.49
2019-04-23T03:21:42.548Z,60.79
2019-04-23T03:22:35.444Z,60.49
2019-04-23T03:23:47.125Z,61.51
2019-04-23T03:24:40.487Z,61.10
2019-04-23T03:27:03.537Z,61.74
2019-04-23T03:31:14.514Z,62.15
2019-04-23T03:34:19.772Z,62.15
2019-04-23T03:36:39.917Z,63.51
2019-04-23T03:38:43.374Z,63.21
2019-04-23T03:39:44.256Z,63.31
2019-04-23T03:40:27.492Z,64.34
2019-04-23T03:41:43.435Z,63.96
2019-04-23T03:42:38.925Z,63.96
2019-04-23T03:43:44.837Z,64.06
2019-04-23T03:44:45.049Z,64.26
2019-04-23T03:46:44.860Z,64.13
2019-04-23T03:47:34.878Z,64.47
2019-04-23T03:48:41.662Z,64.37
2019-04-23T03:49:41.644Z,64.88
2019-04-23T03:51:34.175Z,64.78
2019-04-23T03:52:34.232Z,64.67
2019-04-23T03:53:52.394Z,65.60
2019-04-23T03:57:41.131Z,65.29
2019-04-23T04:01:29.817Z,65.09
2019-04-23T04:04:06.486Z,65.19
2019-04-23T04:06:45.388Z,65.70
2019-04-23T04:07:36.539Z,66.11
2019-04-23T04:08:25.952Z,65.60
2019-04-23T04:09:34.411Z,65.70
2019-04-23T04:10:42.158Z,66.22
2019-04-23T04:11:40.369Z,65.98
2019-04-23T04:14:38.422Z,65.70
2019-04-23T04:16:36.155Z,66.39
2019-04-23T04:17:40.227Z,66.70
2019-04-23T04:18:39.188Z,66.83
2019-04-23T04:20:42.006Z,67.03
2019-04-23T04:23:33.278Z,67.44
2019-04-23T04:24:37.836Z,67.14
2019-04-23T04:25:36.421Z,67.24
2019-04-23T04:26:43.952Z,67.14
2019-04-23T04:27:36.540Z,67.24
2019-04-23T04:28:39.232Z,67.44
2019-04-23T04:29:39.744Z,67.55
2019-04-23T04:30:37.999Z,67.55
2019-04-23T04:31:48.808Z,67.65
2019-04-23T04:33:48.953Z,67.96
2019-04-23T04:34:58.437Z,67.93
2019-04-23T04:35:44.714Z,67.72
2019-04-23T04:36:32.628Z,67.86
2019-04-23T04:37:44.170Z,67.96
2019-04-23T04:39:34.019Z,67.86
2019-04-23T04:41:34.520Z,68.57
2019-04-23T04:43:45.913Z,68.68
2019-04-23T04:44:43.261Z,68.96
2019-04-23T04:45:41.735Z,68.85
2019-04-23T04:46:50.451Z,68.85
2019-04-23T04:47:36.086Z,68.88
2019-04-23T04:48:32.233Z,69.40
2019-04-23T04:49:30.113Z,69.47
2019-04-23T04:50:24.152Z,69.67
2019-04-23T04:54:22.752Z,69.67
2019-04-23T04:56:35.996Z,69.91
2019-04-23T04:58:30.859Z,69.88
2019-04-23T04:59:59.440Z,69.67
2019-04-23T05:01:52.165Z,69.33
2019-04-23T05:02:37.843Z,70.15
2019-04-23T05:03:26.869Z,69.95
2019-04-23T05:04:37.383Z,69.02
2019-04-23T05:06:02.462Z,69.02
2019-04-23T05:06:39.140Z,67.97
2019-04-23T05:07:36.111Z,67.94
2019-04-23T05:09:43.896Z,68.96
2019-04-23T05:11:39.035Z,68.45
2019-04-23T05:12:30.728Z,68.96
2019-04-23T05:14:33.399Z,69.20
2019-04-23T05:15:23.124Z,68.55
2019-04-23T05:16:27.792Z,68.86
2019-04-23T05:17:32.887Z,67.94
2019-04-23T05:19:45.683Z,68.96
2019-04-23T05:20:31.960Z,68.55
2019-04-23T05:21:26.963Z,68.52
2019-04-23T05:22:33.796Z,69.37
2019-04-23T05:24:31.759Z,68.96
2019-04-23T05:25:28.089Z,69.17
2019-04-23T05:26:25.047Z,68.96
2019-04-23T05:27:29.018Z,68.76
2019-04-23T05:28:54.442Z,68.96
2019-04-23T05:29:31.252Z,69.27
2019-04-23T05:30:34.980Z,69.47
2019-04-23T05:31:23.296Z,69.06
2019-04-23T05:32:30.518Z,68.86
2019-04-23T05:33:33.711Z,68.93
2019-04-23T05:34:23.979Z,68.73
2019-04-23T05:35:33.357Z,69.03
2019-04-23T05:36:40.186Z,69.54
2019-04-23T05:37:35.497Z,68.93
2019-04-23T05:38:37.084Z,68.83
2019-04-23T05:39:31.028Z,69.13
2019-04-23T05:42:26.536Z,69.13
2019-04-23T05:43:27.756Z,67.60
2019-04-23T05:44:29.589Z,67.46
2019-04-23T05:45:21.702Z,68.38
2019-04-23T05:46:33.382Z,68.49
2019-04-23T05:47:27.454Z,68.18
2019-04-23T05:48:28.332Z,68.79
2019-04-23T05:49:27.982Z,68.90
2019-04-23T05:50:39.233Z,68.90
2019-04-23T05:51:17.849Z,69.07
2019-04-23T05:52:27.521Z,68.28
2019-04-23T05:53:27.793Z,68.69
2019-04-23T05:54:28.875Z,68.55
2019-04-23T05:55:25.102Z,68.97
2019-04-23T05:56:23.853Z,68.66
2019-04-23T05:57:20.226Z,69.17
2019-04-23T05:58:30.086Z,68.97
2019-04-23T05:59:23.175Z,68.55
2019-04-23T06:00:23.730Z,68.87
2019-04-23T06:01:49.758Z,68.46
2019-04-23T06:02:26.187Z,68.97
2019-04-23T06:03:22.715Z,68.66
2019-04-23T06:04:32.735Z,68.35
2019-04-23T06:05:25.831Z,68.32
2019-04-23T06:08:36.800Z,68.55
2019-04-23T06:09:25.251Z,68.76
2019-04-23T06:10:30.559Z,68.93
2019-04-23T06:11:30.519Z,68.73
2019-04-23T06:12:18.820Z,67.50
2019-04-23T06:13:26.315Z,67.60
2019-04-23T06:14:25.109Z,67.71
2019-04-23T06:15:30.334Z,67.71
2019-04-23T06:16:31.414Z,67.71
2019-04-23T06:17:21.294Z,67.81
2019-04-23T06:19:22.736Z,67.27
2019-04-23T06:20:42.571Z,67.27
2019-04-23T06:21:24.149Z,67.27
2019-04-23T06:22:30.082Z,67.07
2019-04-23T06:23:28.820Z,67.27
2019-04-23T06:24:27.384Z,67.16
2019-04-23T06:25:41.606Z,67.16
2019-04-23T06:26:34.546Z,67.78
2019-04-23T06:27:27.684Z,67.44
2019-04-23T06:29:26.000Z,67.65
2019-04-23T06:30:27.801Z,67.95
2019-04-23T06:32:25.860Z,67.65
2019-04-23T06:33:25.755Z,67.13
2019-04-23T06:34:38.174Z,67.65
2019-04-23T06:35:22.537Z,67.82
2019-04-23T06:36:26.011Z,67.82
2019-04-23T06:37:36.164Z,67.30
2019-04-23T06:38:44.977Z,66.49
2019-04-23T06:39:26.038Z,66.49
2019-04-23T06:40:24.737Z,66.80
2019-04-23T06:42:23.104Z,66.28
2019-04-23T06:43:24.078Z,66.77
2019-04-23T06:44:25.501Z,67.27
2019-04-23T06:45:22.086Z,67.18
2019-04-23T06:46:28.658Z,67.27
2019-04-23T06:47:21.977Z,65.95
2019-04-23T06:48:32.105Z,66.15
2019-04-23T06:49:26.915Z,65.44
2019-04-23T06:51:27.146Z,66.05
2019-04-23T06:53:21.547Z,65.44
2019-04-23T06:54:27.435Z,65.03
2019-04-23T06:55:20.407Z,64.79
2019-04-23T06:56:24.705Z,64.90
2019-04-23T06:57:22.089Z,64.69
2019-04-23T06:58:30.104Z,64.18
2019-04-23T06:59:27.347Z,64.69
2019-04-23T07:00:21.042Z,65.51
2019-04-23T07:01:27.725Z,65.10
2019-04-23T07:02:25.867Z,64.46
2019-04-23T07:03:31.215Z,64.15
2019-04-23T07:04:36.277Z,64.05
2019-04-23T07:05:27.275Z,64.25
2019-04-23T07:06:41.213Z,63.44
2019-04-23T07:08:32.272Z,63.85
2019-04-23T07:09:15.225Z,64.25
2019-04-23T07:10:25.220Z,64.43
2019-04-23T07:11:29.064Z,63.92
2019-04-23T07:12:25.777Z,62.82
2019-04-23T07:13:34.155Z,64.02
2019-04-23T07:14:28.744Z,63.61
2019-04-23T07:15:33.697Z,63.71
2019-04-23T07:16:27.721Z,62.59
2019-04-23T07:17:18.484Z,62.70
2019-04-23T07:18:34.476Z,63.71
2019-04-23T07:19:38.836Z,62.46
2019-04-23T07:20:28.625Z,62.70
2019-04-23T07:22:21.904Z,62.97
2019-04-23T07:23:31.426Z,62.46
2019-04-23T07:24:22.868Z,62.97
2019-04-23T07:26:29.759Z,63.07
2019-04-23T07:27:37.767Z,63.24
2019-04-23T07:28:29.927Z,63.04
2019-04-23T07:29:27.576Z,62.33
2019-04-23T07:30:23.145Z,61.31
2019-04-23T07:32:23.660Z,61.72
2019-04-23T07:33:28.144Z,62.33
2019-04-23T07:34:18.813Z,62.23
2019-04-23T07:35:15.790Z,62.94
2019-04-23T07:37:22.948Z,60.39
2019-04-23T07:38:32.855Z,60.98
2019-04-23T07:39:38.822Z,60.68
2019-04-23T07:40:27.609Z,60.77
2019-04-23T07:41:30.280Z,59.75
2019-04-23T07:42:29.491Z,61.18
2019-04-23T07:43:21.380Z,60.57
2019-04-23T07:44:31.284Z,60.64
2019-04-23T07:45:24.056Z,60.85
2019-04-23T07:48:30.468Z,60.95
2019-04-23T07:49:23.736Z,60.11
2019-04-23T07:50:37.738Z,59.60
2019-04-23T07:51:31.529Z,59.60
2019-04-23T07:52:33.233Z,60.00
2019-04-23T07:53:22.877Z,60.11
2019-04-23T07:54:38.730Z,58.69
2019-04-23T07:56:21.413Z,59.19
2019-04-23T07:59:31.423Z,59.16
2019-04-23T08:00:29.811Z,58.96
2019-04-23T08:01:19.055Z,58.35
2019-04-23T08:02:28.954Z,58.35
2019-04-23T08:03:40.079Z,58.45
2019-04-23T08:04:29.195Z,57.74
2019-04-23T08:06:19.498Z,57.13
2019-04-23T08:07:30.149Z,57.03
2019-04-23T08:08:16.799Z,58.76
2019-04-23T08:09:24.310Z,58.25
2019-04-23T08:10:42.157Z,56.90
2019-04-23T08:12:25.175Z,57.00
2019-04-23T08:13:33.154Z,58.22
2019-04-23T08:14:20.238Z,58.73
2019-04-23T08:15:26.858Z,57.31
2019-04-23T08:17:22.511Z,57.18
2019-04-23T08:18:29.794Z,56.98
2019-04-23T08:19:33.255Z,57.10
2019-04-23T08:20:26.759Z,57.00
2019-04-23T08:22:25.936Z,56.98
2019-04-23T08:23:25.710Z,57.18
2019-04-23T08:24:18.172Z,57.68
2019-04-23T08:25:29.967Z,57.18
2019-04-23T08:26:34.266Z,57.35
2019-04-23T08:27:22.414Z,57.48
2019-04-23T08:28:35.483Z,56.85
2019-04-23T08:29:22.075Z,57.35
2019-04-23T08:30:21.836Z,57.25
2019-04-23T08:31:28.340Z,56.95
2019-04-23T08:32:29.242Z,57.43
2019-04-23T08:33:24.454Z,58.65
2019-04-23T08:34:39.668Z,57.40
2019-04-23T08:35:23.219Z,58.22
2019-04-23T08:36:31.208Z,56.79
2019-04-23T08:37:25.359Z,55.88
2019-04-23T08:38:32.377Z,54.86
2019-04-23T08:39:26.866Z,54.26
2019-04-23T08:40:27.568Z,53.85
2019-04-23T08:44:27.645Z,56.29
2019-04-23T08:46:23.021Z,54.03
2019-04-23T08:47:26.247Z,54.13
2019-04-23T08:49:29.621Z,54.46
2019-04-23T08:50:21.599Z,53.85
2019-04-23T08:51:38.518Z,54.46
2019-04-23T08:54:37.136Z,54.36
2019-04-23T08:56:20.679Z,54.03
2019-04-23T08:57:22.696Z,53.93
2019-04-23T08:58:43.606Z,55.12
2019-04-23T08:59:33.189Z,53.72
2019-04-23T09:00:24.808Z,53.30
2019-04-23T09:01:24.864Z,54.84
2019-04-23T09:02:31.223Z,54.00
2019-04-23T09:03:25.155Z,53.80
2019-04-23T09:04:23.652Z,53.91
2019-04-23T09:06:22.220Z,54.11
2019-04-23T09:09:30.828Z,54.08
2019-04-23T09:10:26.391Z,53.37
2019-04-23T09:11:35.884Z,53.88
2019-04-23T09:12:28.598Z,53.47
2019-04-23T09:13:51.691Z,53.67
2019-04-23T09:14:08.580Z,54.18
2019-04-23T09:15:36.789Z,53.67
2019-04-23T09:16:22.179Z,52.84
2019-04-23T09:17:27.533Z,53.17
2019-04-23T09:18:22.975Z,53.37
2019-04-23T09:19:34.734Z,51.12
2019-04-23T09:21:23.938Z,51.12
2019-04-23T09:23:30.961Z,53.14
2019-04-23T09:24:23.016Z,53.72
2019-04-23T09:25:29.937Z,53.63
2019-04-23T09:26:15.797Z,53.02
2019-04-23T09:29:37.698Z,52.72
2019-04-23T09:30:32.391Z,53.40
2019-04-23T09:31:30.398Z,53.30
2019-04-23T09:33:23.951Z,51.65
2019-04-23T09:34:31.539Z,51.45
2019-04-23T09:37:28.558Z,51.15
2019-04-23T09:39:36.211Z,51.45
2019-04-23T09:41:22.197Z,50.72
2019-04-23T09:42:33.531Z,50.04
2019-04-23T09:43:21.170Z,51.35
2019-04-23T09:44:41.479Z,51.25
2019-04-23T09:45:31.161Z,52.87
2019-04-23T09:46:24.047Z,49.93
2019-04-23T09:47:26.353Z,50.34
2019-04-23T09:48:23.044Z,50.54
2019-04-23T09:49:26.420Z,51.15
2019-04-23T09:50:23.724Z,49.51
2019-04-23T09:51:26.757Z,50.92
2019-04-23T09:52:30.916Z,51.03
2019-04-23T09:53:33.932Z,49.30
2019-04-23T09:54:24.263Z,51.53
2019-04-23T09:55:27.520Z,49.91
2019-04-23T09:56:23.620Z,50.29
2019-04-23T09:57:15.919Z,47.89
2019-04-23T09:58:18.289Z,49.79
2019-04-23T09:59:39.095Z,50.39
2019-04-23T10:00:31.686Z,49.58
2019-04-23T10:01:22.690Z,49.79
2019-04-23T10:02:20.111Z,49.58
2019-04-23T10:03:09.283Z,50.98
2019-04-23T10:04:07.407Z,50.37
2019-04-23T10:05:07.353Z,48.58
2019-04-23T10:06:01.909Z,50.37
2019-04-23T10:07:05.457Z,50.67
2019-04-23T10:08:05.086Z,48.45
2019-04-23T10:08:58.645Z,49.76
2019-04-23T10:09:57.369Z,49.56
2019-04-23T10:10:55.430Z,49.96
2019-04-23T10:11:55.484Z,47.95
2019-04-23T10:12:54.024Z,49.87
2019-04-23T10:13:54.815Z,48.05
2019-04-23T10:15:05.670Z,48.45
2019-04-23T10:15:55.544Z,49.26
2019-04-23T10:16:55.704Z,48.45
2019-04-23T10:17:54.296Z,47.24
2019-04-23T10:18:55.166Z,48.35
2019-04-23T10:19:55.162Z,49.96
2019-04-23T10:20:54.332Z,48.43
2019-04-23T10:21:55.407Z,48.13
2019-04-23T10:22:54.555Z,48.22
2019-04-23T10:23:55.060Z,48.63
2019-04-23T10:24:55.105Z,48.22
2019-04-23T10:25:56.265Z,48.22
2019-04-23T10:26:53.825Z,49.11
2019-04-23T10:28:00.591Z,48.53
2019-04-23T10:28:56.128Z,47.90
2019-04-23T10:29:54.207Z,46.69
2019-04-23T10:30:54.536Z,48.10
2019-04-23T10:31:55.427Z,47.80
2019-04-23T10:32:53.905Z,47.30
2019-04-23T10:33:53.805Z,49.19
2019-04-23T10:35:10.325Z,47.07
2019-04-23T10:36:02.210Z,46.77
2019-04-23T10:36:55.631Z,46.87
2019-04-23T10:38:01.864Z,47.27
2019-04-23T10:39:02.578Z,47.78
2019-04-23T10:40:00.382Z,47.47
2019-04-23T10:40:56.030Z,48.28
2019-04-23T10:41:55.398Z,47.07
2019-04-23T10:42:54.451Z,47.58
2019-04-23T10:43:54.930Z,48.08
2019-04-23T10:45:08.841Z,48.08
2019-04-23T10:46:15.322Z,47.88
2019-04-23T10:47:27.059Z,48.66
2019-04-23T10:48:35.363Z,46.85
2019-04-23T10:50:28.228Z,46.57
2019-04-23T10:51:28.836Z,47.07
2019-04-23T10:53:29.887Z,47.25
2019-04-23T10:55:25.343Z,47.25
2019-04-23T10:56:32.434Z,47.58
2019-04-23T10:58:25.131Z,47.83
2019-04-23T10:59:27.191Z,49.04
2019-04-23T11:00:23.854Z,48.32
2019-04-23T11:01:20.851Z,47.51
2019-04-23T11:03:42.430Z,47.51
2019-04-23T11:04:42.943Z,47.19
2019-04-23T11:05:29.092Z,47.69
2019-04-23T11:06:41.056Z,45.37
2019-04-23T11:08:29.404Z,43.50
2019-04-23T11:10:21.997Z,40.95
2019-04-23T11:11:29.285Z,38.71
2019-04-23T11:13:25.663Z,38.66
2019-04-23T11:13:25.899Z,37.51
2019-04-23T11:14:25.631Z,36.57
2019-04-23T11:16:55.654Z,35.33
2019-04-23T11:17:35.794Z,35.11
2019-04-23T11:18:31.251Z,34.30
2019-04-23T11:19:23.695Z,33.69
2019-04-23T11:20:30.213Z,33.37
2019-04-23T11:21:28.544Z,32.18
2019-04-23T11:23:22.476Z,32.69
2019-04-23T11:25:31.558Z,31.77
2019-04-23T11:26:31.321Z,31.67
2019-04-23T11:27:30.904Z,32.84
2019-04-23T11:29:28.011Z,32.45
2019-04-23T11:31:31.583Z,31.32
2019-04-23T11:33:19.902Z,30.70
2019-04-23T11:34:47.824Z,30.52
2019-04-23T11:35:31.033Z,31.24
2019-04-23T11:37:33.275Z,30.69
2019-04-23T11:39:24.342Z,32.89
2019-04-23T11:40:29.874Z,32.01
2019-04-23T11:41:36.508Z,32.53
2019-04-23T11:44:26.908Z,34.66
2019-04-23T11:45:32.447Z,32.45
2019-04-23T11:46:39.725Z,30.76
2019-04-23T11:48:00.476Z,31.84
2019-04-23T11:51:10.683Z,29.75
2019-04-23T11:52:30.083Z,31.02
2019-04-23T11:53:27.938Z,30.02
2019-04-23T11:54:24.152Z,29.92
2019-04-23T11:55:32.856Z,29.74
2019-04-23T11:56:35.490Z,28.85
2019-04-23T11:59:31.293Z,29.81
2019-04-23T12:00:31.762Z,30.18
2019-04-23T12:02:29.632Z,28.14
2019-04-23T12:03:19.311Z,27.84
2019-04-23T12:04:26.548Z,27.94
2019-04-23T12:05:30.128Z,28.12
2019-04-23T12:06:41.801Z,27.82
2019-04-23T12:07:22.687Z,27.61
2019-04-23T12:09:35.234Z,27.24
2019-04-23T12:10:36.224Z,28.34
2019-04-23T12:12:25.060Z,28.56
2019-04-23T12:13:32.178Z,28.65
2019-04-23T12:14:31.036Z,28.35
2019-04-23T12:15:25.274Z,28.74
2019-04-23T12:16:36.358Z,28.03
2019-04-23T12:18:25.647Z,27.65
2019-04-23T12:18:35.376Z,27.76
2019-04-23T12:19:47.713Z,28.25
2019-04-23T12:20:26.723Z,28.14
2019-04-23T12:21:35.886Z,27.93
2019-04-23T12:22:45.634Z,27.83
2019-04-23T12:24:42.073Z,26.56
2019-04-23T12:26:33.596Z,28.65
2019-04-23T12:27:27.555Z,29.05
2019-04-23T12:28:20.600Z,27.56
2019-04-23T12:29:27.734Z,28.37
2019-04-23T12:30:25.183Z,28.38
2019-04-23T12:31:26.529Z,28.86
2019-04-23T12:33:28.084Z,27.07
2019-04-23T12:34:28.144Z,27.15
2019-04-23T12:35:17.710Z,28.14
2019-04-23T12:36:28.702Z,27.55
2019-04-23T12:37:32.778Z,27.75
2019-04-23T12:38:22.132Z,27.07
2019-04-23T12:39:25.859Z,27.87
2019-04-23T12:40:29.101Z,28.25
2019-04-23T12:41:27.137Z,28.12
2019-04-23T12:42:45.202Z,27.04
2019-04-23T12:43:18.987Z,27.83
2019-04-23T12:44:22.359Z,27.72
2019-04-23T12:46:27.714Z,28.02
2019-04-23T12:47:38.154Z,27.41
2019-04-23T12:48:33.906Z,26.99
2019-04-23T12:50:42.295Z,26.62
2019-04-23T12:51:28.316Z,27.44
2019-04-23T12:52:30.745Z,28.93
2019-04-23T12:54:31.875Z,28.72
2019-04-23T12:55:27.920Z,28.02
2019-04-23T12:56:32.001Z,27.64
2019-04-23T12:59:23.803Z,29.00
2019-04-23T13:01:22.642Z,27.93
2019-04-23T13:02:33.040Z,28.03
2019-04-23T13:03:25.147Z,28.52
2019-04-23T13:04:28.697Z,27.93
2019-04-23T13:05:23.898Z,28.33
2019-04-23T13:07:26.081Z,28.37
2019-04-23T13:08:41.524Z,29.54
2019-04-23T13:09:40.471Z,29.44
2019-04-23T13:10:27.363Z,28.64
2019-04-23T13:12:29.297Z,28.02
2019-04-23T13:13:37.719Z,28.79
2019-04-23T13:14:29.597Z,28.28
2019-04-23T13:15:23.934Z,27.58
2019-04-23T13:16:25.442Z,26.81
2019-04-23T13:17:29.766Z,25.82
2019-04-23T13:18:23.911Z,27.30
2019-04-23T13:19:35.116Z,26.21
2019-04-23T13:20:23.527Z,25.52
2019-04-23T13:21:45.276Z,25.73
2019-04-23T13:22:23.966Z,26.35
2019-04-23T13:23:22.259Z,27.83
2019-04-23T13:24:17.215Z,28.12
2019-04-23T13:25:30.548Z,27.03
2019-04-23T13:26:13.622Z,27.91
2019-04-23T13:27:29.284Z,27.99
2019-04-23T13:28:21.029Z,26.71
2019-04-23T13:29:33.267Z,26.32
2019-04-23T13:30:53.139Z,27.51
2019-04-23T13:31:15.074Z,26.04
2019-04-23T13:32:20.965Z,27.34
2019-04-23T13:33:31.449Z,27.45
2019-04-23T13:34:22.534Z,28.06
2019-04-23T13:36:29.040Z,27.96
2019-04-23T13:37:29.245Z,27.56
2019-04-23T13:38:27.526Z,28.07
2019-04-23T13:39:24.488Z,28.18
2019-04-23T13:41:20.159Z,27.77
2019-04-23T13:42:33.144Z,29.07
2019-04-23T13:43:29.659Z,29.85
2019-04-23T13:44:26.094Z,28.86
2019-04-23T13:45:47.356Z,28.16
2019-04-23T13:46:14.825Z,28.27
2019-04-23T13:47:28.240Z,28.07
2019-04-23T13:48:14.851Z,28.47
2019-04-23T13:49:27.712Z,28.94
2019-04-23T13:50:33.242Z,27.96
2019-04-23T13:51:25.743Z,28.05
2019-04-23T13:52:50.087Z,27.25
2019-04-23T13:53:42.698Z,27.84
2019-04-23T13:54:50.139Z,27.96
2019-04-23T13:55:15.281Z,28.07
2019-04-23T13:56:24.475Z,28.27
2019-04-23T13:57:59.220Z,29.47
2019-04-23T13:58:38.859Z,29.36
2019-04-23T13:59:24.282Z,29.55
2019-04-23T14:01:25.743Z,28.94
2019-04-23T14:02:35.727Z,27.94
2019-04-23T14:03:30.237Z,28.66
2019-04-23T14:04:36.050Z,29.77
2019-04-23T14:05:26.527Z,28.67
2019-04-23T14:06:34.960Z,28.58
2019-04-23T14:07:23.360Z,29.17
2019-04-23T14:08:33.365Z,29.07
2019-04-23T14:09:32.007Z,29.37
2019-04-23T14:10:31.126Z,29.50
2019-04-23T14:11:23.294Z,30.00
2019-04-23T14:12:22.474Z,29.91
2019-04-23T14:13:37.067Z,29.69
2019-04-23T14:14:33.042Z,29.97
2019-04-23T14:18:43.399Z,29.50
2019-04-23T14:19:08.918Z,29.30
2019-04-23T14:20:21.509Z,29.39
2019-04-23T14:21:24.992Z,29.99
2019-04-23T14:22:43.476Z,30.67
2019-04-23T14:23:27.651Z,29.77
2019-04-23T14:24:29.135Z,29.75
2019-04-23T14:25:16.684Z,29.36
2019-04-23T14:27:26.312Z,29.99
2019-04-23T14:29:22.917Z,31.48
2019-04-23T14:31:17.325Z,31.07
2019-04-23T14:32:22.413Z,30.37
2019-04-23T14:33:26.505Z,30.80
2019-04-23T14:34:17.679Z,30.41
2019-04-23T14:35:25.542Z,31.42
2019-04-23T14:36:36.156Z,31.41
2019-04-23T14:37:17.997Z,31.84
2019-04-23T14:40:29.364Z,31.85
2019-04-23T14:42:30.405Z,31.45
2019-04-23T14:43:42.385Z,32.24
2019-04-23T14:44:40.582Z,33.03
2019-04-23T14:45:32.715Z,31.34
2019-04-23T14:46:34.924Z,31.84
2019-04-23T14:47:27.822Z,31.84
2019-04-23T14:48:23.379Z,32.05
2019-04-23T14:49:22.122Z,31.75
2019-04-23T14:50:34.630Z,31.85
2019-04-23T14:51:39.487Z,32.45
2019-04-23T14:52:28.694Z,32.26
2019-04-23T14:53:33.451Z,32.86
2019-04-23T14:54:33.375Z,32.96
2019-04-23T14:57:29.991Z,33.31
2019-04-23T14:59:35.898Z,31.60
2019-04-23T15:00:31.471Z,32.28
2019-04-23T15:01:35.412Z,31.11
2019-04-23T15:02:28.787Z,31.69
2019-04-23T15:03:28.469Z,32.07
2019-04-23T15:04:24.746Z,31.48
2019-04-23T15:05:24.082Z,31.68
2019-04-23T15:07:22.619Z,31.79
2019-04-23T15:08:25.175Z,31.57
2019-04-23T15:12:23.547Z,31.49
2019-04-23T15:13:22.978Z,32.50
2019-04-23T15:14:17.177Z,31.93
2019-04-23T15:15:21.073Z,31.85
2019-04-23T15:17:21.348Z,33.76
2019-04-23T15:18:25.251Z,33.67
2019-04-23T15:19:35.196Z,34.36
2019-04-23T15:22:23.247Z,33.57
2019-04-23T15:23:33.339Z,33.76
2019-04-23T15:24:25.117Z,34.45
2019-04-23T15:28:13.276Z,33.24
2019-04-23T15:29:04.570Z,33.04
2019-04-23T15:33:27.099Z,33.21
2019-04-23T15:34:18.942Z,32.81
2019-04-23T15:36:38.703Z,32.61
2019-04-23T15:37:32.967Z,33.21
2019-04-23T15:38:34.010Z,33.50
2019-04-23T15:39:37.976Z,32.82
2019-04-23T15:41:29.487Z,34.10
2019-04-23T15:42:25.825Z,33.19
2019-04-23T15:43:14.588Z,33.59
2019-04-23T15:46:28.453Z,32.65
2019-04-23T15:50:22.983Z,30.91
2019-04-23T15:51:30.104Z,31.60
2019-04-23T15:52:19.218Z,31.01
2019-04-23T15:53:11.368Z,31.81
2019-04-23T15:54:37.074Z,31.31
2019-04-23T15:55:33.929Z,31.90
2019-04-23T15:56:26.867Z,32.89
2019-04-23T15:57:20.043Z,31.90
2019-04-23T15:58:30.064Z,32.70
2019-04-23T15:59:31.273Z,32.88
2019-04-23T16:00:31.375Z,32.96
2019-04-23T16:01:51.424Z,32.15
2019-04-23T16:02:52.451Z,31.46
2019-04-23T16:03:51.719Z,31.26